sensor_id;sensor_type;location;lat;lon;timestamp;P1;durP1;ratioP1;P2;durP2;ratioP2
8536;SDS011;4306;50.210;10.628;2023-12-20T00:01:17;15.47;;;10.30;;
8536;SDS011;4306;50.210;10.628;2023-12-20T00:03:44;12.83;;;9.17;;
8536;SDS011;4306;50.210;10.628;2023-12-20T00:06:11;12.95;;;8.27;;
8536;SDS011;4306;50.210;10.628;2023-12-20T00:08:38;11.70;;;7.53;;
8536;SDS011;4306;50.210;10.628;2023-12-20T00:11:07;12.40;;;8.17;;
8536;SDS011;4306;50.210;10.628;2023-12-20T00:13:34;10.77;;;7.37;;
8536;SDS011;4306;50.210;10.628;2023-12-20T00:16:01;10.00;;;7.00;;
8536;SDS011;4306;50.210;10.628;2023-12-20T00:18:28;12.63;;;7.93;;
8536;SDS011;4306;50.210;10.628;2023-12-20T00:20:55;13.67;;;9.10;;
8536;SDS011;4306;50.210;10.628;2023-12-20T00:23:22;11.63;;;7.73;;
8536;SDS011;4306;50.210;10.628;2023-12-20T00:25:49;10.13;;;7.00;;
8536;SDS011;4306;50.210;10.628;2023-12-20T00:28:18;10.63;;;7.40;;
8536;SDS011;4306;50.210;10.628;2023-12-20T00:30:45;10.17;;;6.47;;
8536;SDS011;4306;50.210;10.628;2023-12-20T00:33:12;14.93;;;8.63;;
8536;SDS011;4306;50.210;10.628;2023-12-20T00:35:39;9.73;;;6.57;;
8536;SDS011;4306;50.210;10.628;2023-12-20T00:38:06;9.35;;;5.97;;
8536;SDS011;4306;50.210;10.628;2023-12-20T00:40:34;11.67;;;7.90;;
8536;SDS011;4306;50.210;10.628;2023-12-20T00:43:01;11.07;;;7.03;;
8536;SDS011;4306;50.210;10.628;2023-12-20T00:45:29;9.50;;;6.10;;
8536;SDS011;4306;50.210;10.628;2023-12-20T00:47:56;8.20;;;5.87;;
8536;SDS011;4306;50.210;10.628;2023-12-20T00:50:24;8.83;;;6.27;;
8536;SDS011;4306;50.210;10.628;2023-12-20T00:52:51;9.93;;;7.10;;
8536;SDS011;4306;50.210;10.628;2023-12-20T00:55:19;8.67;;;5.97;;
8536;SDS011;4306;50.210;10.628;2023-12-20T00:57:46;14.23;;;8.32;;
8536;SDS011;4306;50.210;10.628;2023-12-20T01:00:13;10.07;;;6.37;;
8536;SDS011;4306;50.210;10.628;2023-12-20T01:02:42;7.90;;;5.17;;
8536;SDS011;4306;50.210;10.628;2023-12-20T01:05:11;6.17;;;4.80;;
8536;SDS011;4306;50.210;10.628;2023-12-20T01:07:39;5.93;;;4.23;;
8536;SDS011;4306;50.210;10.628;2023-12-20T01:10:06;6.37;;;4.03;;
8536;SDS011;4306;50.210;10.628;2023-12-20T01:12:34;6.80;;;4.10;;
8536;SDS011;4306;50.210;10.628;2023-12-20T01:15:01;5.50;;;3.27;;
8536;SDS011;4306;50.210;10.628;2023-12-20T01:17:28;3.75;;;2.53;;
8536;SDS011;4306;50.210;10.628;2023-12-20T01:19:56;4.40;;;2.50;;
8536;SDS011;4306;50.210;10.628;2023-12-20T01:22:24;3.37;;;2.00;;
8536;SDS011;4306;50.210;10.628;2023-12-20T01:24:51;4.60;;;2.63;;
8536;SDS011;4306;50.210;10.628;2023-12-20T01:27:18;3.03;;;1.73;;
8536;SDS011;4306;50.210;10.628;2023-12-20T01:29:45;2.80;;;1.60;;
8536;SDS011;4306;50.210;10.628;2023-12-20T01:32:12;2.63;;;1.73;;
8536;SDS011;4306;50.210;10.628;2023-12-20T01:34:39;2.67;;;1.48;;
8536;SDS011;4306;50.210;10.628;2023-12-20T01:37:07;2.83;;;1.50;;
8536;SDS011;4306;50.210;10.628;2023-12-20T01:39:34;2.67;;;1.70;;
8536;SDS011;4306;50.210;10.628;2023-12-20T01:42:01;4.23;;;1.43;;
8536;SDS011;4306;50.210;10.628;2023-12-20T01:44:28;1.60;;;1.03;;
8536;SDS011;4306;50.210;10.628;2023-12-20T01:46:55;2.50;;;1.40;;
8536;SDS011;4306;50.210;10.628;2023-12-20T01:49:23;4.45;;;1.40;;
8536;SDS011;4306;50.210;10.628;2023-12-20T01:51:50;3.90;;;1.63;;
8536;SDS011;4306;50.210;10.628;2023-12-20T01:54:18;2.40;;;1.23;;
8536;SDS011;4306;50.210;10.628;2023-12-20T01:56:47;1.73;;;1.10;;
8536;SDS011;4306;50.210;10.628;2023-12-20T01:59:15;3.10;;;1.20;;
8536;SDS011;4306;50.210;10.628;2023-12-20T02:01:44;1.67;;;1.10;;
8536;SDS011;4306;50.210;10.628;2023-12-20T02:04:11;2.13;;;1.37;;
8536;SDS011;4306;50.210;10.628;2023-12-20T02:06:39;2.53;;;1.17;;
8536;SDS011;4306;50.210;10.628;2023-12-20T02:09:06;2.65;;;1.10;;
8536;SDS011;4306;50.210;10.628;2023-12-20T02:11:35;2.22;;;1.27;;
8536;SDS011;4306;50.210;10.628;2023-12-20T02:14:02;2.93;;;1.10;;
8536;SDS011;4306;50.210;10.628;2023-12-20T02:16:30;2.77;;;1.20;;
8536;SDS011;4306;50.210;10.628;2023-12-20T02:18:57;2.10;;;1.00;;
8536;SDS011;4306;50.210;10.628;2023-12-20T02:21:26;1.47;;;0.80;;
8536;SDS011;4306;50.210;10.628;2023-12-20T02:23:59;2.47;;;1.10;;
8536;SDS011;4306;50.210;10.628;2023-12-20T02:26:26;2.47;;;1.00;;
8536;SDS011;4306;50.210;10.628;2023-12-20T02:28:53;2.03;;;0.90;;
8536;SDS011;4306;50.210;10.628;2023-12-20T02:31:21;2.58;;;0.98;;
8536;SDS011;4306;50.210;10.628;2023-12-20T02:33:48;1.95;;;1.10;;
8536;SDS011;4306;50.210;10.628;2023-12-20T02:36:15;1.43;;;0.87;;
8536;SDS011;4306;50.210;10.628;2023-12-20T02:38:44;1.00;;;0.70;;
8536;SDS011;4306;50.210;10.628;2023-12-20T02:41:11;2.10;;;1.13;;
8536;SDS011;4306;50.210;10.628;2023-12-20T02:43:38;1.20;;;0.80;;
8536;SDS011;4306;50.210;10.628;2023-12-20T02:46:05;2.13;;;1.37;;
8536;SDS011;4306;50.210;10.628;2023-12-20T02:48:32;2.77;;;1.07;;
8536;SDS011;4306;50.210;10.628;2023-12-20T02:50:59;1.57;;;1.07;;
8536;SDS011;4306;50.210;10.628;2023-12-20T02:53:26;1.90;;;0.90;;
8536;SDS011;4306;50.210;10.628;2023-12-20T02:55:54;1.73;;;1.05;;
8536;SDS011;4306;50.210;10.628;2023-12-20T02:58:21;1.13;;;0.90;;
8536;SDS011;4306;50.210;10.628;2023-12-20T03:00:48;3.33;;;1.42;;
8536;SDS011;4306;50.210;10.628;2023-12-20T03:03:15;2.60;;;1.50;;
8536;SDS011;4306;50.210;10.628;2023-12-20T03:05:42;1.40;;;1.10;;
8536;SDS011;4306;50.210;10.628;2023-12-20T03:08:11;2.27;;;1.10;;
8536;SDS011;4306;50.210;10.628;2023-12-20T03:10:38;0.97;;;0.80;;
8536;SDS011;4306;50.210;10.628;2023-12-20T03:13:06;1.43;;;1.10;;
8536;SDS011;4306;50.210;10.628;2023-12-20T03:15:34;2.00;;;1.20;;
8536;SDS011;4306;50.210;10.628;2023-12-20T03:18:01;2.53;;;0.90;;
8536;SDS011;4306;50.210;10.628;2023-12-20T03:20:28;1.27;;;0.80;;
8536;SDS011;4306;50.210;10.628;2023-12-20T03:22:58;0.83;;;0.70;;
8536;SDS011;4306;50.210;10.628;2023-12-20T03:25:25;1.50;;;1.00;;
8536;SDS011;4306;50.210;10.628;2023-12-20T03:27:52;1.67;;;0.70;;
8536;SDS011;4306;50.210;10.628;2023-12-20T03:30:21;1.10;;;0.63;;
8536;SDS011;4306;50.210;10.628;2023-12-20T03:32:48;1.00;;;0.70;;
8536;SDS011;4306;50.210;10.628;2023-12-20T03:35:15;0.80;;;0.70;;
8536;SDS011;4306;50.210;10.628;2023-12-20T03:37:42;1.83;;;0.80;;
8536;SDS011;4306;50.210;10.628;2023-12-20T03:40:09;5.07;;;0.70;;
8536;SDS011;4306;50.210;10.628;2023-12-20T03:42:36;0.73;;;0.70;;
8536;SDS011;4306;50.210;10.628;2023-12-20T03:45:04;4.40;;;1.77;;
8536;SDS011;4306;50.210;10.628;2023-12-20T03:47:33;2.40;;;1.07;;
8536;SDS011;4306;50.210;10.628;2023-12-20T03:50:00;2.25;;;1.10;;
8536;SDS011;4306;50.210;10.628;2023-12-20T03:52:27;1.83;;;1.00;;
8536;SDS011;4306;50.210;10.628;2023-12-20T03:54:54;3.43;;;1.40;;
8536;SDS011;4306;50.210;10.628;2023-12-20T03:57:21;2.30;;;1.07;;
8536;SDS011;4306;50.210;10.628;2023-12-20T03:59:48;1.93;;;1.00;;
8536;SDS011;4306;50.210;10.628;2023-12-20T04:02:15;1.33;;;1.00;;
8536;SDS011;4306;50.210;10.628;2023-12-20T04:04:44;4.10;;;1.70;;
8536;SDS011;4306;50.210;10.628;2023-12-20T04:07:11;2.53;;;1.20;;
8536;SDS011;4306;50.210;10.628;2023-12-20T04:09:38;1.87;;;1.13;;
8536;SDS011;4306;50.210;10.628;2023-12-20T04:12:07;1.70;;;1.10;;
8536;SDS011;4306;50.210;10.628;2023-12-20T04:14:34;1.70;;;1.10;;
8536;SDS011;4306;50.210;10.628;2023-12-20T04:17:01;2.33;;;1.40;;
8536;SDS011;4306;50.210;10.628;2023-12-20T04:19:28;1.73;;;1.00;;
8536;SDS011;4306;50.210;10.628;2023-12-20T04:21:56;2.10;;;1.30;;
8536;SDS011;4306;50.210;10.628;2023-12-20T04:24:23;2.03;;;1.30;;
8536;SDS011;4306;50.210;10.628;2023-12-20T04:26:50;3.90;;;1.70;;
8536;SDS011;4306;50.210;10.628;2023-12-20T04:29:17;2.87;;;1.60;;
8536;SDS011;4306;50.210;10.628;2023-12-20T04:31:44;2.67;;;1.10;;
8536;SDS011;4306;50.210;10.628;2023-12-20T04:34:11;1.60;;;1.10;;
8536;SDS011;4306;50.210;10.628;2023-12-20T04:36:38;3.77;;;1.63;;
8536;SDS011;4306;50.210;10.628;2023-12-20T04:39:07;2.63;;;1.50;;
8536;SDS011;4306;50.210;10.628;2023-12-20T04:41:34;2.00;;;1.40;;
8536;SDS011;4306;50.210;10.628;2023-12-20T04:44:01;2.20;;;1.43;;
8536;SDS011;4306;50.210;10.628;2023-12-20T04:46:28;2.27;;;1.50;;
8536;SDS011;4306;50.210;10.628;2023-12-20T04:48:55;2.10;;;1.30;;
8536;SDS011;4306;50.210;10.628;2023-12-20T04:51:22;2.22;;;1.50;;
8536;SDS011;4306;50.210;10.628;2023-12-20T04:53:49;2.47;;;1.60;;
8536;SDS011;4306;50.210;10.628;2023-12-20T04:56:17;2.50;;;1.60;;
8536;SDS011;4306;50.210;10.628;2023-12-20T04:58:44;2.77;;;1.70;;
8536;SDS011;4306;50.210;10.628;2023-12-20T05:01:12;1.93;;;1.27;;
8536;SDS011;4306;50.210;10.628;2023-12-20T05:03:39;3.60;;;2.00;;
8536;SDS011;4306;50.210;10.628;2023-12-20T05:06:06;2.05;;;1.35;;
8536;SDS011;4306;50.210;10.628;2023-12-20T05:08:33;2.67;;;1.50;;
8536;SDS011;4306;50.210;10.628;2023-12-20T05:11:00;2.87;;;2.00;;
8536;SDS011;4306;50.210;10.628;2023-12-20T05:13:29;3.50;;;1.67;;
8536;SDS011;4306;50.210;10.628;2023-12-20T05:15:56;3.53;;;1.80;;
8536;SDS011;4306;50.210;10.628;2023-12-20T05:18:23;4.47;;;1.90;;
8536;SDS011;4306;50.210;10.628;2023-12-20T05:20:50;3.10;;;2.00;;
8536;SDS011;4306;50.210;10.628;2023-12-20T05:23:17;3.15;;;1.65;;
8536;SDS011;4306;50.210;10.628;2023-12-20T05:25:45;3.40;;;1.67;;
8536;SDS011;4306;50.210;10.628;2023-12-20T05:28:12;3.00;;;2.20;;
8536;SDS011;4306;50.210;10.628;2023-12-20T05:30:40;2.73;;;1.90;;
8536;SDS011;4306;50.210;10.628;2023-12-20T05:33:08;2.50;;;1.63;;
8536;SDS011;4306;50.210;10.628;2023-12-20T05:35:35;3.13;;;2.30;;
8536;SDS011;4306;50.210;10.628;2023-12-20T05:38:02;3.67;;;2.43;;
8536;SDS011;4306;50.210;10.628;2023-12-20T05:40:29;4.10;;;2.53;;
8536;SDS011;4306;50.210;10.628;2023-12-20T05:42:56;5.40;;;2.27;;
8536;SDS011;4306;50.210;10.628;2023-12-20T05:45:23;3.38;;;2.03;;
8536;SDS011;4306;50.210;10.628;2023-12-20T05:47:52;3.00;;;1.97;;
8536;SDS011;4306;50.210;10.628;2023-12-20T05:50:19;3.70;;;2.15;;
8536;SDS011;4306;50.210;10.628;2023-12-20T05:52:46;2.97;;;2.00;;
8536;SDS011;4306;50.210;10.628;2023-12-20T05:55:13;2.80;;;2.00;;
8536;SDS011;4306;50.210;10.628;2023-12-20T05:57:40;2.83;;;1.70;;
8536;SDS011;4306;50.210;10.628;2023-12-20T06:00:08;2.47;;;1.57;;
8536;SDS011;4306;50.210;10.628;2023-12-20T06:02:40;5.17;;;2.37;;
8536;SDS011;4306;50.210;10.628;2023-12-20T06:05:09;3.43;;;2.30;;
8536;SDS011;4306;50.210;10.628;2023-12-20T06:07:36;5.07;;;2.70;;
8536;SDS011;4306;50.210;10.628;2023-12-20T06:10:04;3.33;;;2.10;;
8536;SDS011;4306;50.210;10.628;2023-12-20T06:12:32;4.13;;;2.57;;
8536;SDS011;4306;50.210;10.628;2023-12-20T06:15:01;4.67;;;2.73;;
8536;SDS011;4306;50.210;10.628;2023-12-20T06:17:28;4.53;;;2.70;;
8536;SDS011;4306;50.210;10.628;2023-12-20T06:19:56;4.53;;;3.00;;
8536;SDS011;4306;50.210;10.628;2023-12-20T06:22:25;3.40;;;2.37;;
8536;SDS011;4306;50.210;10.628;2023-12-20T06:24:52;3.40;;;2.40;;
8536;SDS011;4306;50.210;10.628;2023-12-20T06:27:19;4.00;;;2.43;;
8536;SDS011;4306;50.210;10.628;2023-12-20T06:29:46;4.83;;;2.93;;
8536;SDS011;4306;50.210;10.628;2023-12-20T06:32:13;7.00;;;3.83;;
8536;SDS011;4306;50.210;10.628;2023-12-20T06:34:40;4.63;;;2.43;;
8536;SDS011;4306;50.210;10.628;2023-12-20T06:37:07;5.67;;;2.90;;
8536;SDS011;4306;50.210;10.628;2023-12-20T06:39:36;4.00;;;2.60;;
8536;SDS011;4306;50.210;10.628;2023-12-20T06:42:03;4.50;;;2.80;;
8536;SDS011;4306;50.210;10.628;2023-12-20T06:44:30;6.80;;;3.13;;
8536;SDS011;4306;50.210;10.628;2023-12-20T06:46:57;5.50;;;2.60;;
8536;SDS011;4306;50.210;10.628;2023-12-20T06:49:24;6.27;;;2.90;;
8536;SDS011;4306;50.210;10.628;2023-12-20T06:51:51;4.63;;;3.33;;
8536;SDS011;4306;50.210;10.628;2023-12-20T06:54:18;6.07;;;4.00;;
8536;SDS011;4306;50.210;10.628;2023-12-20T06:56:46;6.23;;;3.80;;
8536;SDS011;4306;50.210;10.628;2023-12-20T06:59:13;15.47;;;7.40;;
8536;SDS011;4306;50.210;10.628;2023-12-20T07:01:41;8.00;;;5.00;;
8536;SDS011;4306;50.210;10.628;2023-12-20T07:04:08;18.23;;;8.43;;
8536;SDS011;4306;50.210;10.628;2023-12-20T07:06:36;7.50;;;4.50;;
8536;SDS011;4306;50.210;10.628;2023-12-20T07:09:03;5.53;;;3.27;;
8536;SDS011;4306;50.210;10.628;2023-12-20T07:11:31;11.57;;;5.00;;
8536;SDS011;4306;50.210;10.628;2023-12-20T07:13:58;7.77;;;4.20;;
8536;SDS011;4306;50.210;10.628;2023-12-20T07:16:26;7.87;;;5.23;;
8536;SDS011;4306;50.210;10.628;2023-12-20T07:18:53;4.60;;;3.23;;
8536;SDS011;4306;50.210;10.628;2023-12-20T07:21:21;4.27;;;3.03;;
8536;SDS011;4306;50.210;10.628;2023-12-20T07:23:48;5.10;;;3.80;;
8536;SDS011;4306;50.210;10.628;2023-12-20T07:26:15;9.07;;;7.10;;
8536;SDS011;4306;50.210;10.628;2023-12-20T07:28:43;6.67;;;4.50;;
8536;SDS011;4306;50.210;10.628;2023-12-20T07:31:12;7.67;;;5.30;;
8536;SDS011;4306;50.210;10.628;2023-12-20T07:33:39;7.17;;;4.20;;
8536;SDS011;4306;50.210;10.628;2023-12-20T07:36:06;6.80;;;4.97;;
8536;SDS011;4306;50.210;10.628;2023-12-20T07:38:34;6.47;;;5.40;;
8536;SDS011;4306;50.210;10.628;2023-12-20T07:41:01;6.60;;;4.27;;
8536;SDS011;4306;50.210;10.628;2023-12-20T07:43:28;10.73;;;6.43;;
8536;SDS011;4306;50.210;10.628;2023-12-20T07:45:55;6.80;;;4.23;;
8536;SDS011;4306;50.210;10.628;2023-12-20T07:48:23;6.57;;;5.10;;
8536;SDS011;4306;50.210;10.628;2023-12-20T07:50:50;6.87;;;3.60;;
8536;SDS011;4306;50.210;10.628;2023-12-20T07:53:19;6.30;;;4.43;;
8536;SDS011;4306;50.210;10.628;2023-12-20T07:55:46;7.87;;;4.10;;
8536;SDS011;4306;50.210;10.628;2023-12-20T07:58:12;6.00;;;4.30;;
8536;SDS011;4306;50.210;10.628;2023-12-20T08:00:39;8.40;;;4.00;;
8536;SDS011;4306;50.210;10.628;2023-12-20T08:03:06;7.83;;;4.70;;
8536;SDS011;4306;50.210;10.628;2023-12-20T08:05:35;6.90;;;4.23;;
8536;SDS011;4306;50.210;10.628;2023-12-20T08:08:02;6.80;;;4.43;;
8536;SDS011;4306;50.210;10.628;2023-12-20T08:10:30;7.30;;;4.70;;
8536;SDS011;4306;50.210;10.628;2023-12-20T08:12:57;6.60;;;4.63;;
8536;SDS011;4306;50.210;10.628;2023-12-20T08:15:24;5.93;;;3.93;;
8536;SDS011;4306;50.210;10.628;2023-12-20T08:17:51;5.80;;;4.33;;
8536;SDS011;4306;50.210;10.628;2023-12-20T08:20:18;8.07;;;4.50;;
8536;SDS011;4306;50.210;10.628;2023-12-20T08:22:46;7.97;;;5.13;;
8536;SDS011;4306;50.210;10.628;2023-12-20T08:25:13;6.33;;;4.80;;
8536;SDS011;4306;50.210;10.628;2023-12-20T08:27:40;7.93;;;5.47;;
8536;SDS011;4306;50.210;10.628;2023-12-20T08:30:08;6.30;;;4.60;;
8536;SDS011;4306;50.210;10.628;2023-12-20T08:32:36;7.57;;;4.43;;
8536;SDS011;4306;50.210;10.628;2023-12-20T08:35:03;7.23;;;4.00;;
8536;SDS011;4306;50.210;10.628;2023-12-20T08:37:31;8.17;;;5.07;;
8536;SDS011;4306;50.210;10.628;2023-12-20T08:39:59;7.60;;;4.32;;
8536;SDS011;4306;50.210;10.628;2023-12-20T08:42:26;6.07;;;4.38;;
8536;SDS011;4306;50.210;10.628;2023-12-20T08:44:56;6.07;;;4.17;;
8536;SDS011;4306;50.210;10.628;2023-12-20T08:47:23;8.43;;;4.90;;
8536;SDS011;4306;50.210;10.628;2023-12-20T08:49:51;6.30;;;3.90;;
8536;SDS011;4306;50.210;10.628;2023-12-20T08:52:21;5.47;;;3.27;;
8536;SDS011;4306;50.210;10.628;2023-12-20T08:54:48;7.73;;;3.33;;
8536;SDS011;4306;50.210;10.628;2023-12-20T08:57:18;5.60;;;3.10;;
8536;SDS011;4306;50.210;10.628;2023-12-20T08:59:48;8.87;;;3.60;;
8536;SDS011;4306;50.210;10.628;2023-12-20T09:02:15;5.87;;;3.27;;
8536;SDS011;4306;50.210;10.628;2023-12-20T09:04:42;3.77;;;2.80;;
8536;SDS011;4306;50.210;10.628;2023-12-20T09:07:20;4.23;;;2.60;;
8536;SDS011;4306;50.210;10.628;2023-12-20T09:09:48;4.97;;;2.60;;
8536;SDS011;4306;50.210;10.628;2023-12-20T09:12:17;4.45;;;2.58;;
8536;SDS011;4306;50.210;10.628;2023-12-20T09:14:45;5.05;;;2.63;;
8536;SDS011;4306;50.210;10.628;2023-12-20T09:17:12;4.88;;;2.53;;
8536;SDS011;4306;50.210;10.628;2023-12-20T09:19:40;5.37;;;2.47;;
8536;SDS011;4306;50.210;10.628;2023-12-20T09:22:07;5.63;;;2.60;;
8536;SDS011;4306;50.210;10.628;2023-12-20T09:24:34;4.28;;;2.15;;
8536;SDS011;4306;50.210;10.628;2023-12-20T09:27:01;6.40;;;2.73;;
8536;SDS011;4306;50.210;10.628;2023-12-20T09:29:29;8.38;;;2.55;;
8536;SDS011;4306;50.210;10.628;2023-12-20T09:31:56;6.77;;;2.53;;
8536;SDS011;4306;50.210;10.628;2023-12-20T09:34:24;4.80;;;2.70;;
8536;SDS011;4306;50.210;10.628;2023-12-20T09:36:52;6.73;;;2.70;;
8536;SDS011;4306;50.210;10.628;2023-12-20T09:39:19;3.87;;;2.50;;
8536;SDS011;4306;50.210;10.628;2023-12-20T09:41:49;7.07;;;2.37;;
8536;SDS011;4306;50.210;10.628;2023-12-20T09:44:27;5.37;;;2.10;;
8536;SDS011;4306;50.210;10.628;2023-12-20T09:46:56;5.40;;;1.83;;
8536;SDS011;4306;50.210;10.628;2023-12-20T09:49:24;7.03;;;2.43;;
8536;SDS011;4306;50.210;10.628;2023-12-20T09:51:53;4.40;;;2.00;;
8536;SDS011;4306;50.210;10.628;2023-12-20T09:54:22;7.93;;;2.30;;
8536;SDS011;4306;50.210;10.628;2023-12-20T09:56:50;5.20;;;1.97;;
8536;SDS011;4306;50.210;10.628;2023-12-20T09:59:17;6.20;;;2.30;;
8536;SDS011;4306;50.210;10.628;2023-12-20T10:01:45;9.20;;;2.90;;
8536;SDS011;4306;50.210;10.628;2023-12-20T10:04:12;8.20;;;2.80;;
8536;SDS011;4306;50.210;10.628;2023-12-20T10:06:40;6.67;;;2.53;;
8536;SDS011;4306;50.210;10.628;2023-12-20T10:09:07;5.78;;;2.83;;
8536;SDS011;4306;50.210;10.628;2023-12-20T10:11:36;5.47;;;2.78;;
8536;SDS011;4306;50.210;10.628;2023-12-20T10:14:04;10.55;;;2.97;;
8536;SDS011;4306;50.210;10.628;2023-12-20T10:16:31;6.60;;;3.13;;
8536;SDS011;4306;50.210;10.628;2023-12-20T10:19:00;7.20;;;3.07;;
8536;SDS011;4306;50.210;10.628;2023-12-20T10:21:28;5.47;;;3.20;;
8536;SDS011;4306;50.210;10.628;2023-12-20T10:23:55;9.53;;;3.27;;
8536;SDS011;4306;50.210;10.628;2023-12-20T10:26:23;8.30;;;2.83;;
8536;SDS011;4306;50.210;10.628;2023-12-20T10:28:52;8.77;;;3.20;;
8536;SDS011;4306;50.210;10.628;2023-12-20T10:31:27;10.20;;;3.50;;
8536;SDS011;4306;50.210;10.628;2023-12-20T10:33:56;6.43;;;3.50;;
8536;SDS011;4306;50.210;10.628;2023-12-20T10:36:27;9.98;;;2.65;;
8536;SDS011;4306;50.210;10.628;2023-12-20T10:38:57;8.97;;;3.10;;
8536;SDS011;4306;50.210;10.628;2023-12-20T10:41:25;7.60;;;2.33;;
8536;SDS011;4306;50.210;10.628;2023-12-20T10:43:58;7.20;;;2.93;;
8536;SDS011;4306;50.210;10.628;2023-12-20T10:46:28;7.53;;;2.40;;
8536;SDS011;4306;50.210;10.628;2023-12-20T10:48:57;9.00;;;2.70;;
8536;SDS011;4306;50.210;10.628;2023-12-20T10:51:24;7.07;;;2.60;;
8536;SDS011;4306;50.210;10.628;2023-12-20T10:53:55;9.80;;;2.70;;
8536;SDS011;4306;50.210;10.628;2023-12-20T10:56:22;10.82;;;2.97;;
8536;SDS011;4306;50.210;10.628;2023-12-20T10:58:50;5.90;;;2.10;;
8536;SDS011;4306;50.210;10.628;2023-12-20T11:01:18;10.37;;;2.70;;
8536;SDS011;4306;50.210;10.628;2023-12-20T11:03:48;6.87;;;2.10;;
8536;SDS011;4306;50.210;10.628;2023-12-20T11:06:21;8.82;;;3.40;;
8536;SDS011;4306;50.210;10.628;2023-12-20T11:09:01;6.43;;;2.50;;
8536;SDS011;4306;50.210;10.628;2023-12-20T11:11:46;6.80;;;2.17;;
8536;SDS011;4306;50.210;10.628;2023-12-20T11:14:29;7.03;;;2.28;;
8536;SDS011;4306;50.210;10.628;2023-12-20T11:17:06;7.83;;;3.23;;
8536;SDS011;4306;50.210;10.628;2023-12-20T11:19:36;5.97;;;2.33;;
8536;SDS011;4306;50.210;10.628;2023-12-20T11:22:29;4.95;;;1.80;;
8536;SDS011;4306;50.210;10.628;2023-12-20T11:24:59;6.20;;;2.40;;
8536;SDS011;4306;50.210;10.628;2023-12-20T11:27:31;5.77;;;2.00;;
8536;SDS011;4306;50.210;10.628;2023-12-20T11:29:58;14.50;;;3.30;;
8536;SDS011;4306;50.210;10.628;2023-12-20T11:32:29;5.38;;;2.00;;
8536;SDS011;4306;50.210;10.628;2023-12-20T11:34:56;4.70;;;1.63;;
8536;SDS011;4306;50.210;10.628;2023-12-20T11:37:29;7.90;;;2.03;;
8536;SDS011;4306;50.210;10.628;2023-12-20T11:40:00;6.55;;;2.05;;
8536;SDS011;4306;50.210;10.628;2023-12-20T11:42:30;7.13;;;2.83;;
8536;SDS011;4306;50.210;10.628;2023-12-20T11:45:01;7.00;;;2.42;;
8536;SDS011;4306;50.210;10.628;2023-12-20T11:47:29;7.07;;;2.30;;
8536;SDS011;4306;50.210;10.628;2023-12-20T11:49:57;7.67;;;1.93;;
8536;SDS011;4306;50.210;10.628;2023-12-20T11:52:25;6.60;;;1.70;;
8536;SDS011;4306;50.210;10.628;2023-12-20T11:54:54;5.37;;;1.90;;
8536;SDS011;4306;50.210;10.628;2023-12-20T11:57:21;5.37;;;2.43;;
8536;SDS011;4306;50.210;10.628;2023-12-20T11:59:48;7.15;;;2.72;;
8536;SDS011;4306;50.210;10.628;2023-12-20T12:02:15;6.18;;;2.65;;
8536;SDS011;4306;50.210;10.628;2023-12-20T12:04:42;7.60;;;2.05;;
8536;SDS011;4306;50.210;10.628;2023-12-20T12:07:09;6.43;;;2.40;;
8536;SDS011;4306;50.210;10.628;2023-12-20T12:09:37;7.70;;;2.22;;
8536;SDS011;4306;50.210;10.628;2023-12-20T12:12:06;8.47;;;2.70;;
8536;SDS011;4306;50.210;10.628;2023-12-20T12:14:34;12.30;;;3.90;;
8536;SDS011;4306;50.210;10.628;2023-12-20T12:17:02;10.07;;;2.50;;
8536;SDS011;4306;50.210;10.628;2023-12-20T12:19:29;5.13;;;2.53;;
8536;SDS011;4306;50.210;10.628;2023-12-20T12:22:06;7.68;;;2.15;;
8536;SDS011;4306;50.210;10.628;2023-12-20T12:24:38;9.30;;;2.10;;
8536;SDS011;4306;50.210;10.628;2023-12-20T12:27:07;7.50;;;2.70;;
8536;SDS011;4306;50.210;10.628;2023-12-20T12:29:34;7.10;;;2.03;;
8536;SDS011;4306;50.210;10.628;2023-12-20T12:32:04;6.60;;;2.17;;
8536;SDS011;4306;50.210;10.628;2023-12-20T12:34:32;5.67;;;2.20;;
8536;SDS011;4306;50.210;10.628;2023-12-20T12:37:00;6.47;;;1.80;;
8536;SDS011;4306;50.210;10.628;2023-12-20T12:39:28;5.93;;;1.87;;
8536;SDS011;4306;50.210;10.628;2023-12-20T12:41:56;4.53;;;1.90;;
8536;SDS011;4306;50.210;10.628;2023-12-20T12:44:24;8.90;;;1.92;;
8536;SDS011;4306;50.210;10.628;2023-12-20T12:46:51;4.70;;;1.70;;
8536;SDS011;4306;50.210;10.628;2023-12-20T12:49:19;4.50;;;1.88;;
8536;SDS011;4306;50.210;10.628;2023-12-20T12:51:46;5.32;;;1.90;;
8536;SDS011;4306;50.210;10.628;2023-12-20T12:54:13;4.30;;;1.70;;
8536;SDS011;4306;50.210;10.628;2023-12-20T12:56:42;5.63;;;2.07;;
8536;SDS011;4306;50.210;10.628;2023-12-20T12:59:09;6.70;;;2.63;;
8536;SDS011;4306;50.210;10.628;2023-12-20T13:01:37;4.30;;;1.58;;
8536;SDS011;4306;50.210;10.628;2023-12-20T13:04:05;6.47;;;2.23;;
8536;SDS011;4306;50.210;10.628;2023-12-20T13:06:35;7.00;;;2.00;;
8536;SDS011;4306;50.210;10.628;2023-12-20T13:09:03;8.63;;;2.70;;
8536;SDS011;4306;50.210;10.628;2023-12-20T13:11:30;6.70;;;2.00;;
8536;SDS011;4306;50.210;10.628;2023-12-20T13:13:57;5.13;;;1.93;;
8536;SDS011;4306;50.210;10.628;2023-12-20T13:16:24;10.13;;;2.70;;
8536;SDS011;4306;50.210;10.628;2023-12-20T13:18:53;7.72;;;2.60;;
8536;SDS011;4306;50.210;10.628;2023-12-20T13:21:21;5.13;;;1.80;;
8536;SDS011;4306;50.210;10.628;2023-12-20T13:23:48;8.13;;;2.10;;
8536;SDS011;4306;50.210;10.628;2023-12-20T13:26:15;7.45;;;2.22;;
8536;SDS011;4306;50.210;10.628;2023-12-20T13:28:42;6.60;;;2.35;;
8536;SDS011;4306;50.210;10.628;2023-12-20T13:31:09;5.30;;;2.13;;
8536;SDS011;4306;50.210;10.628;2023-12-20T13:33:36;7.60;;;2.40;;
8536;SDS011;4306;50.210;10.628;2023-12-20T13:36:06;9.23;;;2.10;;
8536;SDS011;4306;50.210;10.628;2023-12-20T13:38:34;6.50;;;2.40;;
8536;SDS011;4306;50.210;10.628;2023-12-20T13:41:01;8.10;;;2.23;;
8536;SDS011;4306;50.210;10.628;2023-12-20T13:43:28;7.00;;;2.43;;
8536;SDS011;4306;50.210;10.628;2023-12-20T13:45:55;8.77;;;2.47;;
8536;SDS011;4306;50.210;10.628;2023-12-20T13:48:22;8.43;;;2.30;;
8536;SDS011;4306;50.210;10.628;2023-12-20T13:50:49;8.30;;;2.20;;
8536;SDS011;4306;50.210;10.628;2023-12-20T13:53:17;8.27;;;2.20;;
8536;SDS011;4306;50.210;10.628;2023-12-20T13:55:45;5.13;;;2.10;;
8536;SDS011;4306;50.210;10.628;2023-12-20T13:58:12;6.43;;;2.05;;
8536;SDS011;4306;50.210;10.628;2023-12-20T14:00:39;7.80;;;2.40;;
8536;SDS011;4306;50.210;10.628;2023-12-20T14:03:06;6.47;;;2.27;;
8536;SDS011;4306;50.210;10.628;2023-12-20T14:05:35;5.07;;;1.80;;
8536;SDS011;4306;50.210;10.628;2023-12-20T14:08:02;10.93;;;2.00;;
8536;SDS011;4306;50.210;10.628;2023-12-20T14:10:31;10.20;;;2.75;;
8536;SDS011;4306;50.210;10.628;2023-12-20T14:12:58;5.40;;;2.28;;
8536;SDS011;4306;50.210;10.628;2023-12-20T14:15:25;6.55;;;2.63;;
8536;SDS011;4306;50.210;10.628;2023-12-20T14:17:52;8.68;;;2.00;;
8536;SDS011;4306;50.210;10.628;2023-12-20T14:20:19;4.40;;;2.30;;
8536;SDS011;4306;50.210;10.628;2023-12-20T14:22:46;8.27;;;2.70;;
8536;SDS011;4306;50.210;10.628;2023-12-20T14:25:14;5.95;;;2.15;;
8536;SDS011;4306;50.210;10.628;2023-12-20T14:27:42;6.18;;;1.80;;
8536;SDS011;4306;50.210;10.628;2023-12-20T14:30:10;8.40;;;2.80;;
8536;SDS011;4306;50.210;10.628;2023-12-20T14:32:39;6.00;;;1.80;;
8536;SDS011;4306;50.210;10.628;2023-12-20T14:35:06;5.23;;;2.10;;
8536;SDS011;4306;50.210;10.628;2023-12-20T14:37:34;5.97;;;2.00;;
8536;SDS011;4306;50.210;10.628;2023-12-20T14:40:04;4.30;;;2.13;;
8536;SDS011;4306;50.210;10.628;2023-12-20T14:42:35;8.57;;;2.33;;
8536;SDS011;4306;50.210;10.628;2023-12-20T14:45:05;10.43;;;2.90;;
8536;SDS011;4306;50.210;10.628;2023-12-20T14:47:32;10.40;;;3.63;;
8536;SDS011;4306;50.210;10.628;2023-12-20T14:50:01;6.43;;;2.20;;
8536;SDS011;4306;50.210;10.628;2023-12-20T14:52:29;7.45;;;3.08;;
8536;SDS011;4306;50.210;10.628;2023-12-20T14:54:56;8.20;;;2.60;;
8536;SDS011;4306;50.210;10.628;2023-12-20T14:57:23;5.83;;;2.27;;
8536;SDS011;4306;50.210;10.628;2023-12-20T14:59:51;10.10;;;2.73;;
8536;SDS011;4306;50.210;10.628;2023-12-20T15:02:19;6.23;;;2.20;;
8536;SDS011;4306;50.210;10.628;2023-12-20T15:04:46;9.20;;;3.10;;